sensor_id;sensor_type;location;lat;lon;timestamp;P1;durP1;ratioP1;P2;durP2;ratioP2
6019;SDS011;3038;51.122;6.840;2023-06-22T00:01:04;6.07;;;5.50;;
6019;SDS011;3038;51.122;6.840;2023-06-22T00:03:29;6.50;;;5.90;;
6019;SDS011;3038;51.122;6.840;2023-06-22T00:05:55;7.17;;;6.37;;
6019;SDS011;3038;51.122;6.840;2023-06-22T00:08:21;6.70;;;6.10;;
6019;SDS011;3038;51.122;6.840;2023-06-22T00:10:46;8.77;;;6.33;;
6019;SDS011;3038;51.122;6.840;2023-06-22T00:13:12;7.20;;;6.00;;
6019;SDS011;3038;51.122;6.840;2023-06-22T00:15:39;6.33;;;5.73;;
6019;SDS011;3038;51.122;6.840;2023-06-22T00:18:06;6.53;;;5.93;;
6019;SDS011;3038;51.122;6.840;2023-06-22T00:20:32;6.90;;;5.70;;
6019;SDS011;3038;51.122;6.840;2023-06-22T00:23:01;6.20;;;5.60;;
6019;SDS011;3038;51.122;6.840;2023-06-22T00:25:27;8.23;;;5.40;;
6019;SDS011;3038;51.122;6.840;2023-06-22T00:27:52;7.63;;;6.00;;
6019;SDS011;3038;51.122;6.840;2023-06-22T00:30:18;8.83;;;6.30;;
6019;SDS011;3038;51.122;6.840;2023-06-22T00:32:46;7.17;;;6.30;;
6019;SDS011;3038;51.122;6.840;2023-06-22T00:35:11;8.40;;;6.00;;
6019;SDS011;3038;51.122;6.840;2023-06-22T00:37:38;6.40;;;5.80;;
6019;SDS011;3038;51.122;6.840;2023-06-22T00:40:07;7.23;;;6.30;;
6019;SDS011;3038;51.122;6.840;2023-06-22T00:42:40;8.53;;;6.60;;
6019;SDS011;3038;51.122;6.840;2023-06-22T00:45:06;6.30;;;5.23;;
6019;SDS011;3038;51.122;6.840;2023-06-22T00:47:34;7.33;;;5.80;;
6019;SDS011;3038;51.122;6.840;2023-06-22T00:50:00;7.23;;;5.60;;
6019;SDS011;3038;51.122;6.840;2023-06-22T00:52:28;6.73;;;6.03;;
6019;SDS011;3038;51.122;6.840;2023-06-22T00:54:56;5.90;;;5.30;;
6019;SDS011;3038;51.122;6.840;2023-06-22T00:57:22;10.03;;;5.70;;
6019;SDS011;3038;51.122;6.840;2023-06-22T00:59:52;5.27;;;4.87;;
6019;SDS011;3038;51.122;6.840;2023-06-22T01:02:18;6.10;;;5.50;;
6019;SDS011;3038;51.122;6.840;2023-06-22T01:04:44;5.97;;;5.47;;
6019;SDS011;3038;51.122;6.840;2023-06-22T01:07:19;5.93;;;5.33;;
6019;SDS011;3038;51.122;6.840;2023-06-22T01:10:08;8.17;;;6.23;;
6019;SDS011;3038;51.122;6.840;2023-06-22T01:12:40;5.53;;;5.03;;
6019;SDS011;3038;51.122;6.840;2023-06-22T01:15:25;8.50;;;4.73;;
6019;SDS011;3038;51.122;6.840;2023-06-22T01:18:14;5.80;;;5.20;;
6019;SDS011;3038;51.122;6.840;2023-06-22T01:20:41;5.73;;;5.23;;
6019;SDS011;3038;51.122;6.840;2023-06-22T01:28:55;6.63;;;5.77;;
6019;SDS011;3038;51.122;6.840;2023-06-22T01:31:24;6.83;;;5.70;;
6019;SDS011;3038;51.122;6.840;2023-06-22T01:34:02;7.47;;;6.87;;
6019;SDS011;3038;51.122;6.840;2023-06-22T01:36:30;5.90;;;5.40;;
6019;SDS011;3038;51.122;6.840;2023-06-22T01:38:58;6.83;;;6.23;;
6019;SDS011;3038;51.122;6.840;2023-06-22T01:41:25;7.83;;;6.30;;
6019;SDS011;3038;51.122;6.840;2023-06-22T01:43:52;8.00;;;6.43;;
6019;SDS011;3038;51.122;6.840;2023-06-22T01:46:19;6.63;;;6.03;;
6019;SDS011;3038;51.122;6.840;2023-06-22T01:48:46;6.40;;;5.90;;
6019;SDS011;3038;51.122;6.840;2023-06-22T01:51:12;7.30;;;6.60;;
6019;SDS011;3038;51.122;6.840;2023-06-22T01:53:38;7.77;;;7.17;;
6019;SDS011;3038;51.122;6.840;2023-06-22T01:56:04;8.20;;;7.40;;
6019;SDS011;3038;51.122;6.840;2023-06-22T01:58:30;8.90;;;8.10;;
6019;SDS011;3038;51.122;6.840;2023-06-22T02:00:58;8.23;;;7.47;;
6019;SDS011;3038;51.122;6.840;2023-06-22T02:03:29;9.00;;;8.10;;
6019;SDS011;3038;51.122;6.840;2023-06-22T02:06:01;8.10;;;7.40;;
6019;SDS011;3038;51.122;6.840;2023-06-22T02:08:33;8.30;;;7.50;;
6019;SDS011;3038;51.122;6.840;2023-06-22T02:11:05;8.93;;;8.10;;
6019;SDS011;3038;51.122;6.840;2023-06-22T02:13:32;8.90;;;8.10;;
6019;SDS011;3038;51.122;6.840;2023-06-22T02:15:58;10.87;;;8.70;;
6019;SDS011;3038;51.122;6.840;2023-06-22T02:18:25;10.10;;;9.20;;
6019;SDS011;3038;51.122;6.840;2023-06-22T02:20:50;9.33;;;8.53;;
6019;SDS011;3038;51.122;6.840;2023-06-22T02:23:15;8.50;;;7.80;;
6019;SDS011;3038;51.122;6.840;2023-06-22T02:25:41;9.97;;;9.13;;
6019;SDS011;3038;51.122;6.840;2023-06-22T02:28:09;11.50;;;8.37;;
6019;SDS011;3038;51.122;6.840;2023-06-22T02:30:34;8.80;;;7.90;;
6019;SDS011;3038;51.122;6.840;2023-06-22T02:33:00;9.90;;;8.93;;
6019;SDS011;3038;51.122;6.840;2023-06-22T02:35:26;9.13;;;8.40;;
6019;SDS011;3038;51.122;6.840;2023-06-22T02:38:00;9.30;;;8.40;;
6019;SDS011;3038;51.122;6.840;2023-06-22T02:40:26;9.73;;;8.73;;
6019;SDS011;3038;51.122;6.840;2023-06-22T02:42:53;11.73;;;10.50;;
6019;SDS011;3038;51.122;6.840;2023-06-22T02:45:18;11.40;;;10.50;;
6019;SDS011;3038;51.122;6.840;2023-06-22T02:47:43;11.33;;;10.30;;
6019;SDS011;3038;51.122;6.840;2023-06-22T02:50:09;10.33;;;9.53;;
6019;SDS011;3038;51.122;6.840;2023-06-22T02:52:35;10.57;;;9.70;;
6019;SDS011;3038;51.122;6.840;2023-06-22T02:55:00;12.50;;;11.20;;
6019;SDS011;3038;51.122;6.840;2023-06-22T02:57:26;11.90;;;10.77;;
6019;SDS011;3038;51.122;6.840;2023-06-22T02:59:51;13.17;;;9.23;;
6019;SDS011;3038;51.122;6.840;2023-06-22T03:02:16;12.20;;;11.00;;
6019;SDS011;3038;51.122;6.840;2023-06-22T03:04:42;12.10;;;9.93;;
6019;SDS011;3038;51.122;6.840;2023-06-22T03:07:08;10.33;;;9.43;;
6019;SDS011;3038;51.122;6.840;2023-06-22T03:09:33;11.30;;;10.20;;
6019;SDS011;3038;51.122;6.840;2023-06-22T03:11:59;11.10;;;10.10;;
6019;SDS011;3038;51.122;6.840;2023-06-22T03:14:24;10.10;;;9.30;;
6019;SDS011;3038;51.122;6.840;2023-06-22T03:16:49;11.53;;;10.47;;
6019;SDS011;3038;51.122;6.840;2023-06-22T03:19:15;12.43;;;11.33;;
6019;SDS011;3038;51.122;6.840;2023-06-22T03:21:40;11.03;;;10.13;;
6019;SDS011;3038;51.122;6.840;2023-06-22T03:24:06;11.00;;;10.00;;
6019;SDS011;3038;51.122;6.840;2023-06-22T03:26:32;10.47;;;9.07;;
6019;SDS011;3038;51.122;6.840;2023-06-22T03:28:58;10.77;;;9.80;;
6019;SDS011;3038;51.122;6.840;2023-06-22T03:31:23;9.80;;;9.10;;
6019;SDS011;3038;51.122;6.840;2023-06-22T03:33:49;11.47;;;10.47;;
6019;SDS011;3038;51.122;6.840;2023-06-22T03:36:15;11.03;;;10.03;;
6019;SDS011;3038;51.122;6.840;2023-06-22T03:38:45;10.87;;;9.87;;
6019;SDS011;3038;51.122;6.840;2023-06-22T03:41:11;11.23;;;10.00;;
6019;SDS011;3038;51.122;6.840;2023-06-22T03:43:36;10.67;;;9.77;;
6019;SDS011;3038;51.122;6.840;2023-06-22T03:46:02;11.53;;;10.43;;
6019;SDS011;3038;51.122;6.840;2023-06-22T03:48:27;11.53;;;10.63;;
6019;SDS011;3038;51.122;6.840;2023-06-22T03:50:53;11.90;;;9.50;;
6019;SDS011;3038;51.122;6.840;2023-06-22T03:53:18;11.20;;;10.17;;
6019;SDS011;3038;51.122;6.840;2023-06-22T03:55:51;10.10;;;9.23;;
6019;SDS011;3038;51.122;6.840;2023-06-22T03:58:17;12.60;;;9.37;;
6019;SDS011;3038;51.122;6.840;2023-06-22T04:00:51;11.97;;;9.83;;
6019;SDS011;3038;51.122;6.840;2023-06-22T04:03:18;11.70;;;9.70;;
6019;SDS011;3038;51.122;6.840;2023-06-22T04:05:44;11.57;;;10.37;;
6019;SDS011;3038;51.122;6.840;2023-06-22T04:08:09;10.87;;;10.00;;
6019;SDS011;3038;51.122;6.840;2023-06-22T04:10:35;11.20;;;10.30;;
6019;SDS011;3038;51.122;6.840;2023-06-22T04:13:00;10.37;;;9.57;;
6019;SDS011;3038;51.122;6.840;2023-06-22T04:15:26;11.40;;;10.20;;
6019;SDS011;3038;51.122;6.840;2023-06-22T04:17:51;10.23;;;9.43;;
6019;SDS011;3038;51.122;6.840;2023-06-22T04:20:16;13.97;;;12.67;;
6019;SDS011;3038;51.122;6.840;2023-06-22T04:22:42;10.87;;;9.37;;
6019;SDS011;3038;51.122;6.840;2023-06-22T04:25:07;10.33;;;9.43;;
6019;SDS011;3038;51.122;6.840;2023-06-22T04:27:33;9.80;;;9.00;;
6019;SDS011;3038;51.122;6.840;2023-06-22T04:30:05;9.77;;;8.87;;
6019;SDS011;3038;51.122;6.840;2023-06-22T04:32:31;10.30;;;9.40;;
6019;SDS011;3038;51.122;6.840;2023-06-22T04:34:57;10.13;;;9.17;;
6019;SDS011;3038;51.122;6.840;2023-06-22T04:37:23;9.27;;;8.50;;
6019;SDS011;3038;51.122;6.840;2023-06-22T04:39:49;9.33;;;8.53;;
6019;SDS011;3038;51.122;6.840;2023-06-22T04:42:15;9.80;;;8.80;;
6019;SDS011;3038;51.122;6.840;2023-06-22T04:44:40;8.73;;;8.10;;
6019;SDS011;3038;51.122;6.840;2023-06-22T04:47:07;8.57;;;7.87;;
6019;SDS011;3038;51.122;6.840;2023-06-22T04:49:36;9.83;;;9.00;;
6019;SDS011;3038;51.122;6.840;2023-06-22T04:52:06;10.10;;;9.10;;
6019;SDS011;3038;51.122;6.840;2023-06-22T04:54:33;11.10;;;8.27;;
6019;SDS011;3038;51.122;6.840;2023-06-22T04:57:03;8.80;;;7.90;;
6019;SDS011;3038;51.122;6.840;2023-06-22T04:59:32;8.50;;;7.80;;
6019;SDS011;3038;51.122;6.840;2023-06-22T05:01:58;9.63;;;8.63;;
6019;SDS011;3038;51.122;6.840;2023-06-22T05:04:26;10.90;;;9.83;;
6019;SDS011;3038;51.122;6.840;2023-06-22T05:06:56;10.03;;;9.17;;
6019;SDS011;3038;51.122;6.840;2023-06-22T05:09:23;11.03;;;10.13;;
6019;SDS011;3038;51.122;6.840;2023-06-22T05:11:50;9.93;;;9.00;;
6019;SDS011;3038;51.122;6.840;2023-06-22T05:14:16;9.43;;;8.60;;
6019;SDS011;3038;51.122;6.840;2023-06-22T05:16:43;7.97;;;7.27;;
6019;SDS011;3038;51.122;6.840;2023-06-22T05:19:09;8.50;;;7.63;;
6019;SDS011;3038;51.122;6.840;2023-06-22T05:21:34;9.47;;;8.70;;
6019;SDS011;3038;51.122;6.840;2023-06-22T05:24:00;8.93;;;8.13;;
6019;SDS011;3038;51.122;6.840;2023-06-22T05:26:27;9.13;;;8.33;;
6019;SDS011;3038;51.122;6.840;2023-06-22T05:28:54;8.77;;;8.03;;
6019;SDS011;3038;51.122;6.840;2023-06-22T05:31:19;9.07;;;8.17;;
6019;SDS011;3038;51.122;6.840;2023-06-22T05:33:46;9.70;;;8.80;;
6019;SDS011;3038;51.122;6.840;2023-06-22T05:36:12;9.10;;;8.33;;
6019;SDS011;3038;51.122;6.840;2023-06-22T05:38:38;9.70;;;8.67;;
6019;SDS011;3038;51.122;6.840;2023-06-22T05:41:03;9.20;;;8.40;;
6019;SDS011;3038;51.122;6.840;2023-06-22T05:43:29;8.43;;;7.63;;
6019;SDS011;3038;51.122;6.840;2023-06-22T05:45:54;9.73;;;8.90;;
6019;SDS011;3038;51.122;6.840;2023-06-22T05:48:20;9.17;;;8.43;;
6019;SDS011;3038;51.122;6.840;2023-06-22T05:50:45;9.90;;;9.20;;
6019;SDS011;3038;51.122;6.840;2023-06-22T05:53:11;9.53;;;8.57;;
6019;SDS011;3038;51.122;6.840;2023-06-22T05:55:36;8.93;;;8.07;;
6019;SDS011;3038;51.122;6.840;2023-06-22T05:58:02;10.30;;;9.50;;
6019;SDS011;3038;51.122;6.840;2023-06-22T06:00:28;11.10;;;9.33;;
6019;SDS011;3038;51.122;6.840;2023-06-22T06:02:54;12.00;;;9.30;;
6019;SDS011;3038;51.122;6.840;2023-06-22T06:05:19;8.93;;;8.10;;
6019;SDS011;3038;51.122;6.840;2023-06-22T06:07:45;11.43;;;10.00;;
6019;SDS011;3038;51.122;6.840;2023-06-22T06:10:11;10.70;;;9.70;;
6019;SDS011;3038;51.122;6.840;2023-06-22T06:12:37;14.17;;;9.93;;
6019;SDS011;3038;51.122;6.840;2023-06-22T06:15:02;12.80;;;11.60;;
6019;SDS011;3038;51.122;6.840;2023-06-22T06:17:28;12.90;;;11.90;;
6019;SDS011;3038;51.122;6.840;2023-06-22T06:19:54;13.33;;;12.10;;
6019;SDS011;3038;51.122;6.840;2023-06-22T06:22:19;13.00;;;11.70;;
6019;SDS011;3038;51.122;6.840;2023-06-22T06:24:46;14.53;;;11.90;;
6019;SDS011;3038;51.122;6.840;2023-06-22T06:27:12;13.60;;;12.40;;
6019;SDS011;3038;51.122;6.840;2023-06-22T06:29:38;14.87;;;13.57;;
6019;SDS011;3038;51.122;6.840;2023-06-22T06:32:04;17.40;;;15.20;;
6019;SDS011;3038;51.122;6.840;2023-06-22T06:34:29;17.10;;;15.50;;
6019;SDS011;3038;51.122;6.840;2023-06-22T06:36:54;18.60;;;16.17;;
6019;SDS011;3038;51.122;6.840;2023-06-22T06:39:20;17.50;;;15.90;;
6019;SDS011;3038;51.122;6.840;2023-06-22T06:41:45;19.20;;;17.20;;
6019;SDS011;3038;51.122;6.840;2023-06-22T06:44:11;18.43;;;16.80;;
6019;SDS011;3038;51.122;6.840;2023-06-22T06:46:37;20.53;;;18.63;;
6019;SDS011;3038;51.122;6.840;2023-06-22T06:49:03;21.50;;;19.30;;
6019;SDS011;3038;51.122;6.840;2023-06-22T06:51:31;22.50;;;20.50;;
6019;SDS011;3038;51.122;6.840;2023-06-22T06:54:01;24.40;;;21.90;;
6019;SDS011;3038;51.122;6.840;2023-06-22T06:57:27;26.67;;;24.07;;
6019;SDS011;3038;51.122;6.840;2023-06-22T06:59:54;26.83;;;24.27;;
6019;SDS011;3038;51.122;6.840;2023-06-22T07:02:19;27.43;;;25.03;;
6019;SDS011;3038;51.122;6.840;2023-06-22T07:04:45;26.33;;;23.77;;
6019;SDS011;3038;51.122;6.840;2023-06-22T07:07:10;23.00;;;20.93;;
6019;SDS011;3038;51.122;6.840;2023-06-22T07:09:35;25.93;;;23.43;;
6019;SDS011;3038;51.122;6.840;2023-06-22T07:12:01;24.63;;;22.53;;
6019;SDS011;3038;51.122;6.840;2023-06-22T07:14:26;26.03;;;23.53;;
6019;SDS011;3038;51.122;6.840;2023-06-22T07:16:51;25.13;;;22.63;;
6019;SDS011;3038;51.122;6.840;2023-06-22T07:19:16;24.43;;;22.27;;
6019;SDS011;3038;51.122;6.840;2023-06-22T07:21:48;25.60;;;23.50;;
6019;SDS011;3038;51.122;6.840;2023-06-22T07:24:14;25.47;;;23.27;;
6019;SDS011;3038;51.122;6.840;2023-06-22T07:26:39;23.77;;;21.80;;
6019;SDS011;3038;51.122;6.840;2023-06-22T07:29:04;24.50;;;22.20;;
6019;SDS011;3038;51.122;6.840;2023-06-22T07:31:29;23.27;;;21.20;;
6019;SDS011;3038;51.122;6.840;2023-06-22T07:33:54;22.47;;;20.67;;
6019;SDS011;3038;51.122;6.840;2023-06-22T07:36:20;22.57;;;20.73;;
6019;SDS011;3038;51.122;6.840;2023-06-22T07:38:45;23.00;;;20.87;;
6019;SDS011;3038;51.122;6.840;2023-06-22T07:41:11;22.30;;;20.47;;
6019;SDS011;3038;51.122;6.840;2023-06-22T07:43:36;22.13;;;20.17;;
6019;SDS011;3038;51.122;6.840;2023-06-22T07:46:02;22.40;;;20.70;;
6019;SDS011;3038;51.122;6.840;2023-06-22T07:48:28;21.50;;;19.87;;
6019;SDS011;3038;51.122;6.840;2023-06-22T07:50:53;21.50;;;19.80;;
6019;SDS011;3038;51.122;6.840;2023-06-22T07:53:18;23.17;;;21.17;;
6019;SDS011;3038;51.122;6.840;2023-06-22T07:55:43;22.10;;;20.30;;
6019;SDS011;3038;51.122;6.840;2023-06-22T07:58:09;21.00;;;19.17;;
6019;SDS011;3038;51.122;6.840;2023-06-22T08:00:34;23.80;;;21.80;;
6019;SDS011;3038;51.122;6.840;2023-06-22T08:02:59;22.07;;;20.20;;
6019;SDS011;3038;51.122;6.840;2023-06-22T08:05:25;21.47;;;19.80;;
6019;SDS011;3038;51.122;6.840;2023-06-22T08:07:50;23.10;;;21.10;;
6019;SDS011;3038;51.122;6.840;2023-06-22T08:10:15;22.63;;;20.83;;
6019;SDS011;3038;51.122;6.840;2023-06-22T08:12:41;23.00;;;20.87;;
6019;SDS011;3038;51.122;6.840;2023-06-22T08:15:06;22.43;;;20.43;;
6019;SDS011;3038;51.122;6.840;2023-06-22T08:17:32;20.03;;;18.10;;
6019;SDS011;3038;51.122;6.840;2023-06-22T08:19:58;19.50;;;17.80;;
6019;SDS011;3038;51.122;6.840;2023-06-22T08:22:23;21.13;;;19.20;;
6019;SDS011;3038;51.122;6.840;2023-06-22T08:24:48;20.20;;;18.50;;
6019;SDS011;3038;51.122;6.840;2023-06-22T08:27:13;19.83;;;18.23;;
6019;SDS011;3038;51.122;6.840;2023-06-22T08:29:40;20.40;;;18.67;;
6019;SDS011;3038;51.122;6.840;2023-06-22T08:32:07;19.27;;;17.77;;
6019;SDS011;3038;51.122;6.840;2023-06-22T08:34:32;19.60;;;17.83;;
6019;SDS011;3038;51.122;6.840;2023-06-22T08:36:58;19.80;;;17.90;;
6019;SDS011;3038;51.122;6.840;2023-06-22T08:39:23;18.40;;;16.80;;
6019;SDS011;3038;51.122;6.840;2023-06-22T08:41:48;18.00;;;16.50;;
6019;SDS011;3038;51.122;6.840;2023-06-22T08:44:15;17.50;;;16.03;;
6019;SDS011;3038;51.122;6.840;2023-06-22T08:46:40;18.20;;;16.60;;
6019;SDS011;3038;51.122;6.840;2023-06-22T08:49:06;17.77;;;16.10;;
6019;SDS011;3038;51.122;6.840;2023-06-22T08:51:32;17.67;;;16.27;;
6019;SDS011;3038;51.122;6.840;2023-06-22T08:53:57;15.03;;;13.63;;
6019;SDS011;3038;51.122;6.840;2023-06-22T08:56:22;14.63;;;13.43;;
6019;SDS011;3038;51.122;6.840;2023-06-22T08:58:48;15.00;;;13.70;;
6019;SDS011;3038;51.122;6.840;2023-06-22T09:01:13;14.63;;;13.17;;
6019;SDS011;3038;51.122;6.840;2023-06-22T09:03:40;14.37;;;13.27;;
6019;SDS011;3038;51.122;6.840;2023-06-22T09:06:05;15.33;;;13.93;;
6019;SDS011;3038;51.122;6.840;2023-06-22T09:08:30;13.53;;;12.53;;
6019;SDS011;3038;51.122;6.840;2023-06-22T09:10:56;13.90;;;12.70;;
6019;SDS011;3038;51.122;6.840;2023-06-22T09:13:21;14.10;;;12.97;;
6019;SDS011;3038;51.122;6.840;2023-06-22T09:18:16;13.60;;;12.60;;
6019;SDS011;3038;51.122;6.840;2023-06-22T09:20:42;13.33;;;12.23;;
6019;SDS011;3038;51.122;6.840;2023-06-22T09:23:07;13.63;;;12.53;;
6019;SDS011;3038;51.122;6.840;2023-06-22T09:25:33;13.70;;;12.70;;
6019;SDS011;3038;51.122;6.840;2023-06-22T09:27:58;13.27;;;12.27;;
6019;SDS011;3038;51.122;6.840;2023-06-22T09:30:23;14.73;;;13.63;;
6019;SDS011;3038;51.122;6.840;2023-06-22T09:32:49;14.07;;;12.87;;
6019;SDS011;3038;51.122;6.840;2023-06-22T09:35:14;14.43;;;13.43;;
6019;SDS011;3038;51.122;6.840;2023-06-22T09:37:40;13.57;;;12.60;;
6019;SDS011;3038;51.122;6.840;2023-06-22T09:40:06;14.47;;;13.37;;
6019;SDS011;3038;51.122;6.840;2023-06-22T09:42:36;13.63;;;12.63;;
6019;SDS011;3038;51.122;6.840;2023-06-22T09:45:02;13.33;;;12.43;;
6019;SDS011;3038;51.122;6.840;2023-06-22T09:47:28;14.43;;;13.40;;
6019;SDS011;3038;51.122;6.840;2023-06-22T09:49:54;12.77;;;11.77;;
6019;SDS011;3038;51.122;6.840;2023-06-22T09:52:20;14.47;;;13.23;;
6019;SDS011;3038;51.122;6.840;2023-06-22T09:54:46;14.00;;;13.00;;
6019;SDS011;3038;51.122;6.840;2023-06-22T09:57:11;14.30;;;13.17;;
6019;SDS011;3038;51.122;6.840;2023-06-22T09:59:37;13.40;;;12.50;;
6019;SDS011;3038;51.122;6.840;2023-06-22T10:02:05;13.53;;;12.63;;
6019;SDS011;3038;51.122;6.840;2023-06-22T10:04:31;13.87;;;12.77;;
6019;SDS011;3038;51.122;6.840;2023-06-22T10:06:56;15.00;;;13.80;;
6019;SDS011;3038;51.122;6.840;2023-06-22T10:09:21;13.57;;;12.67;;
6019;SDS011;3038;51.122;6.840;2023-06-22T10:11:47;14.37;;;13.10;;
6019;SDS011;3038;51.122;6.840;2023-06-22T10:14:12;16.57;;;14.83;;
6019;SDS011;3038;51.122;6.840;2023-06-22T10:16:37;14.90;;;13.80;;
6019;SDS011;3038;51.122;6.840;2023-06-22T10:19:03;15.13;;;14.03;;
6019;SDS011;3038;51.122;6.840;2023-06-22T10:21:28;15.30;;;14.10;;
6019;SDS011;3038;51.122;6.840;2023-06-22T10:23:54;15.50;;;14.33;;
6019;SDS011;3038;51.122;6.840;2023-06-22T10:26:20;17.43;;;16.03;;
6019;SDS011;3038;51.122;6.840;2023-06-22T10:28:46;14.87;;;13.87;;
6019;SDS011;3038;51.122;6.840;2023-06-22T10:31:11;16.47;;;15.17;;
6019;SDS011;3038;51.122;6.840;2023-06-22T10:33:36;17.93;;;16.50;;
6019;SDS011;3038;51.122;6.840;2023-06-22T10:36:02;17.00;;;15.70;;
6019;SDS011;3038;51.122;6.840;2023-06-22T10:38:27;18.13;;;16.43;;
6019;SDS011;3038;51.122;6.840;2023-06-22T10:40:53;17.33;;;15.93;;
6019;SDS011;3038;51.122;6.840;2023-06-22T10:43:18;18.63;;;17.23;;
6019;SDS011;3038;51.122;6.840;2023-06-22T10:45:43;18.90;;;17.37;;
6019;SDS011;3038;51.122;6.840;2023-06-22T10:48:09;20.03;;;18.33;;
6019;SDS011;3038;51.122;6.840;2023-06-22T10:50:34;19.40;;;17.70;;
6019;SDS011;3038;51.122;6.840;2023-06-22T10:52:59;21.60;;;19.80;;
6019;SDS011;3038;51.122;6.840;2023-06-22T10:55:25;22.40;;;20.50;;
6019;SDS011;3038;51.122;6.840;2023-06-22T10:57:50;22.50;;;20.70;;
6019;SDS011;3038;51.122;6.840;2023-06-22T11:00:17;23.90;;;21.67;;
6019;SDS011;3038;51.122;6.840;2023-06-22T11:02:43;25.80;;;23.60;;
6019;SDS011;3038;51.122;6.840;2023-06-22T11:05:08;27.07;;;24.47;;
6019;SDS011;3038;51.122;6.840;2023-06-22T11:07:34;26.07;;;23.97;;
6019;SDS011;3038;51.122;6.840;2023-06-22T11:09:59;26.97;;;24.50;;
6019;SDS011;3038;51.122;6.840;2023-06-22T11:12:25;25.13;;;23.13;;
6019;SDS011;3038;51.122;6.840;2023-06-22T11:14:50;24.93;;;22.73;;
6019;SDS011;3038;51.122;6.840;2023-06-22T11:17:17;24.30;;;22.10;;
6019;SDS011;3038;51.122;6.840;2023-06-22T11:19:43;28.03;;;25.57;;
6019;SDS011;3038;51.122;6.840;2023-06-22T11:22:09;31.50;;;28.53;;
6019;SDS011;3038;51.122;6.840;2023-06-22T11:24:35;30.67;;;27.70;;
6019;SDS011;3038;51.122;6.840;2023-06-22T11:27:00;30.30;;;27.63;;
6019;SDS011;3038;51.122;6.840;2023-06-22T11:29:25;31.67;;;28.67;;
6019;SDS011;3038;51.122;6.840;2023-06-22T11:31:51;33.80;;;31.00;;
6019;SDS011;3038;51.122;6.840;2023-06-22T11:34:16;33.77;;;30.63;;
6019;SDS011;3038;51.122;6.840;2023-06-22T11:36:42;34.70;;;31.60;;
6019;SDS011;3038;51.122;6.840;2023-06-22T11:39:09;34.73;;;31.70;;
6019;SDS011;3038;51.122;6.840;2023-06-22T11:41:34;35.00;;;31.60;;
6019;SDS011;3038;51.122;6.840;2023-06-22T11:44:00;31.70;;;29.03;;
6019;SDS011;3038;51.122;6.840;2023-06-22T11:46:25;32.53;;;29.73;;
6019;SDS011;3038;51.122;6.840;2023-06-22T11:53:54;36.23;;;33.03;;
6019;SDS011;3038;51.122;6.840;2023-06-22T11:56:19;35.03;;;32.03;;
6019;SDS011;3038;51.122;6.840;2023-06-22T11:58:44;33.93;;;30.73;;
6019;SDS011;3038;51.122;6.840;2023-06-22T12:01:10;31.40;;;28.70;;
6019;SDS011;3038;51.122;6.840;2023-06-22T12:03:35;29.83;;;27.40;;
6019;SDS011;3038;51.122;6.840;2023-06-22T12:06:01;30.00;;;27.27;;
6019;SDS011;3038;51.122;6.840;2023-06-22T12:08:26;30.53;;;27.87;;
6019;SDS011;3038;51.122;6.840;2023-06-22T12:10:51;29.67;;;27.07;;
6019;SDS011;3038;51.122;6.840;2023-06-22T12:13:18;28.47;;;25.93;;
6019;SDS011;3038;51.122;6.840;2023-06-22T12:15:44;27.40;;;25.00;;
6019;SDS011;3038;51.122;6.840;2023-06-22T12:18:09;30.23;;;27.37;;
6019;SDS011;3038;51.122;6.840;2023-06-22T12:20:34;29.47;;;26.93;;
6019;SDS011;3038;51.122;6.840;2023-06-22T12:23:02;29.73;;;26.80;;
6019;SDS011;3038;51.122;6.840;2023-06-22T12:25:28;31.27;;;28.53;;
6019;SDS011;3038;51.122;6.840;2023-06-22T12:27:53;32.20;;;29.37;;
6019;SDS011;3038;51.122;6.840;2023-06-22T12:30:19;31.40;;;28.67;;
6019;SDS011;3038;51.122;6.840;2023-06-22T12:32:44;31.70;;;28.97;;
6019;SDS011;3038;51.122;6.840;2023-06-22T12:35:09;32.23;;;29.60;;
6019;SDS011;3038;51.122;6.840;2023-06-22T12:37:39;34.57;;;31.77;;
6019;SDS011;3038;51.122;6.840;2023-06-22T12:40:06;30.50;;;28.10;;
6019;SDS011;3038;51.122;6.840;2023-06-22T12:42:32;30.50;;;28.30;;
6019;SDS011;3038;51.122;6.840;2023-06-22T12:44:57;30.27;;;27.73;;
6019;SDS011;3038;51.122;6.840;2023-06-22T12:47:22;28.37;;;26.20;;
6019;SDS011;3038;51.122;6.840;2023-06-22T12:49:48;26.23;;;24.00;;
6019;SDS011;3038;51.122;6.840;2023-06-22T12:52:13;25.77;;;23.87;;
6019;SDS011;3038;51.122;6.840;2023-06-22T12:54:39;24.03;;;22.23;;
6019;SDS011;3038;51.122;6.840;2023-06-22T12:57:04;25.50;;;23.60;;
6019;SDS011;3038;51.122;6.840;2023-06-22T12:59:30;27.50;;;25.20;;
6019;SDS011;3038;51.122;6.840;2023-06-22T13:01:55;24.73;;;22.53;;
6019;SDS011;3038;51.122;6.840;2023-06-22T13:04:21;24.97;;;22.93;;
6019;SDS011;3038;51.122;6.840;2023-06-22T13:06:47;22.83;;;21.07;;
6019;SDS011;3038;51.122;6.840;2023-06-22T13:09:13;25.33;;;23.40;;
6019;SDS011;3038;51.122;6.840;2023-06-22T13:11:39;26.83;;;24.70;;
6019;SDS011;3038;51.122;6.840;2023-06-22T13:14:05;28.63;;;26.50;;
6019;SDS011;3038;51.122;6.840;2023-06-22T13:16:30;26.23;;;24.27;;
6019;SDS011;3038;51.122;6.840;2023-06-22T13:18:56;25.67;;;23.57;;
6019;SDS011;3038;51.122;6.840;2023-06-22T13:21:21;26.77;;;24.60;;
6019;SDS011;3038;51.122;6.840;2023-06-22T13:23:46;25.67;;;23.77;;
6019;SDS011;3038;51.122;6.840;2023-06-22T13:26:12;28.43;;;26.17;;
6019;SDS011;3038;51.122;6.840;2023-06-22T13:28:37;28.07;;;25.97;;
6019;SDS011;3038;51.122;6.840;2023-06-22T13:31:03;28.93;;;26.00;;
6019;SDS011;3038;51.122;6.840;2023-06-22T13:33:28;26.70;;;24.53;;
6019;SDS011;3038;51.122;6.840;2023-06-22T13:35:53;27.20;;;25.03;;
6019;SDS011;3038;51.122;6.840;2023-06-22T13:38:19;27.83;;;25.70;;
6019;SDS011;3038;51.122;6.840;2023-06-22T13:40:44;27.70;;;25.40;;
6019;SDS011;3038;51.122;6.840;2023-06-22T13:43:09;28.03;;;25.93;;
6019;SDS011;3038;51.122;6.840;2023-06-22T13:45:35;27.97;;;25.47;;
6019;SDS011;3038;51.122;6.840;2023-06-22T13:48:00;27.10;;;25.00;;
6019;SDS011;3038;51.122;6.840;2023-06-22T13:50:25;26.97;;;24.67;;
6019;SDS011;3038;51.122;6.840;2023-06-22T13:52:51;27.63;;;25.63;;
6019;SDS011;3038;51.122;6.840;2023-06-22T13:55:16;24.77;;;22.97;;
6019;SDS011;3038;51.122;6.840;2023-06-22T13:57:42;25.07;;;23.17;;
6019;SDS011;3038;51.122;6.840;2023-06-22T14:00:07;23.80;;;21.97;;
6019;SDS011;3038;51.122;6.840;2023-06-22T14:02:33;22.53;;;20.77;;
6019;SDS011;3038;51.122;6.840;2023-06-22T14:04:59;22.90;;;21.30;;
6019;SDS011;3038;51.122;6.840;2023-06-22T14:07:25;22.80;;;20.97;;
6019;SDS011;3038;51.122;6.840;2023-06-22T14:09:50;20.80;;;19.27;;
6019;SDS011;3038;51.122;6.840;2023-06-22T14:12:16;21.27;;;19.70;;
6019;SDS011;3038;51.122;6.840;2023-06-22T14:14:43;19.60;;;18.10;;
6019;SDS011;3038;51.122;6.840;2023-06-22T14:17:08;19.83;;;18.40;;
6019;SDS011;3038;51.122;6.840;2023-06-22T14:19:34;21.40;;;19.63;;
6019;SDS011;3038;51.122;6.840;2023-06-22T14:21:59;21.20;;;19.70;;
6019;SDS011;3038;51.122;6.840;2023-06-22T14:24:24;22.33;;;20.70;;
6019;SDS011;3038;51.122;6.840;2023-06-22T14:26:50;20.47;;;18.60;;
6019;SDS011;3038;51.122;6.840;2023-06-22T14:29:15;18.90;;;17.50;;
6019;SDS011;3038;51.122;6.840;2023-06-22T14:31:44;19.53;;;18.13;;
6019;SDS011;3038;51.122;6.840;2023-06-22T14:34:10;19.70;;;18.20;;
6019;SDS011;3038;51.122;6.840;2023-06-22T14:36:35;19.57;;;18.10;;
6019;SDS011;3038;51.122;6.840;2023-06-22T14:39:00;17.83;;;16.43;;
6019;SDS011;3038;51.122;6.840;2023-06-22T14:41:26;19.60;;;18.00;;
6019;SDS011;3038;51.122;6.840;2023-06-22T14:43:51;19.90;;;18.37;;
6019;SDS011;3038;51.122;6.840;2023-06-22T14:46:17;19.10;;;17.50;;
6019;SDS011;3038;51.122;6.840;2023-06-22T14:48:44;18.37;;;17.07;;
6019;SDS011;3038;51.122;6.840;2023-06-22T14:51:10;18.47;;;17.07;;
6019;SDS011;3038;51.122;6.840;2023-06-22T14:53:36;18.57;;;17.13;;
6019;SDS011;3038;51.122;6.840;2023-06-22T14:56:02;19.20;;;17.60;;
6019;SDS011;3038;51.122;6.840;2023-06-22T14:58:28;18.83;;;17.43;;
6019;SDS011;3038;51.122;6.840;2023-06-22T15:00:58;20.07;;;18.57;;
6019;SDS011;3038;51.122;6.840;2023-06-22T15:03:24;19.20;;;17.70;;